Time;durP1;ratioP1;P1;durP2;ratioP2;P2;SDS_P1;SDS_P2;PMS_P1;PMS_P2;Temp;Humidity;BMP_temperature;BMP_pressure;BME280_temperature;BME280_humidity;BME280_pressure;Samples;Min_cycle;Max_cycle;Signal;HPM_P1;HPM_P2
2021/12/03 00:00:59;;;;;;;16.88;9.20;;;0.20;99.90;;;;;;4991899;28;20030;-79
2021/12/03 00:04:14;;;;;;;15.70;9.75;;;0.30;99.90;;;;;;4992294;28;20178;-81
2021/12/03 00:06:40;;;;;;;13.02;7.78;;;0.30;99.90;;;;;;4993192;28;20065;-79
2021/12/03 00:09:07;;;;;;;16.73;8.60;;;0.40;99.90;;;;;;5009228;28;20026;-78
2021/12/03 00:11:34;;;;;;;13.90;8.65;;;0.30;99.90;;;;;;5015454;28;20033;-80
2021/12/03 00:13:59;;;;;;;13.73;9.30;;;0.40;99.90;;;;;;5026131;28;20029;-80
2021/12/03 00:16:28;;;;;;;15.15;8.32;;;0.40;99.90;;;;;;5017443;28;20068;-80
2021/12/03 00:18:54;;;;;;;13.60;8.63;;;0.30;99.90;;;;;;5007020;28;20035;-81
2021/12/03 00:21:22;;;;;;;14.52;8.80;;;0.20;99.90;;;;;;5009251;28;20201;-81
2021/12/03 00:23:48;;;;;;;15.55;9.23;;;0.20;99.90;;;;;;5010986;28;20046;-80
2021/12/03 00:26:14;;;;;;;15.85;9.63;;;0.10;99.90;;;;;;5010697;28;20061;-79
2021/12/03 00:28:40;;;;;;;17.23;9.85;;;0.10;99.90;;;;;;5012005;28;20026;-80
2021/12/03 00:31:07;;;;;;;15.15;8.93;;;0.10;99.90;;;;;;5011117;28;20129;-80
2021/12/03 00:33:35;;;;;;;19.33;9.88;;;0.10;99.90;;;;;;5013913;28;20034;-81
2021/12/03 00:36:09;;;;;;;15.60;8.80;;;0.10;99.90;;;;;;5013612;28;20050;-80
2021/12/03 00:38:46;;;;;;;14.20;8.50;;;0.10;99.90;;;;;;5012675;28;20026;-80
2021/12/03 00:41:15;;;;;;;15.63;8.85;;;0.10;99.90;;;;;;5016109;28;20022;-80
2021/12/03 00:43:46;;;;;;;15.85;9.23;;;0.20;99.90;;;;;;5015528;28;20026;-79
2021/12/03 00:46:16;;;;;;;16.58;9.27;;;0.30;99.90;;;;;;5012707;28;20054;-80
2021/12/03 00:48:42;;;;;;;13.70;8.90;;;0.40;99.90;;;;;;5013649;28;20019;-79
2021/12/03 00:51:10;;;;;;;14.70;8.70;;;0.60;99.90;;;;;;5013802;28;20061;-80
2021/12/03 00:53:38;;;;;;;14.07;8.18;;;0.60;99.90;;;;;;5012949;28;20045;-80
2021/12/03 00:56:05;;;;;;;17.05;8.15;;;0.70;99.90;;;;;;5013570;28;20031;-80
2021/12/03 00:58:39;;;;;;;14.82;8.23;;;0.70;99.90;;;;;;4996337;28;20021;-79
2021/12/03 01:01:07;;;;;;;12.85;7.90;;;0.70;99.90;;;;;;4997133;28;20031;-80
2021/12/03 01:03:34;;;;;;;11.43;7.93;;;0.70;99.90;;;;;;5009220;28;20023;-78
2021/12/03 01:06:01;;;;;;;16.00;8.27;;;0.70;99.90;;;;;;4993503;28;20062;-80
2021/12/03 01:08:27;;;;;;;12.80;8.15;;;0.70;99.90;;;;;;5008749;28;20511;-79
2021/12/03 01:10:53;;;;;;;14.65;8.40;;;0.70;99.90;;;;;;5020081;28;20030;-80
2021/12/03 01:13:19;;;;;;;14.32;8.10;;;0.70;99.90;;;;;;5028873;28;20016;-80
2021/12/03 01:15:45;;;;;;;13.20;8.40;;;0.80;99.90;;;;;;5031534;28;20029;-78
2021/12/03 01:18:12;;;;;;;12.98;7.78;;;0.80;99.90;;;;;;5014349;28;20034;-80
2021/12/03 01:20:41;;;;;;;13.38;8.40;;;0.80;99.90;;;;;;4995797;28;20023;-81
2021/12/03 01:23:10;;;;;;;12.60;8.75;;;0.90;99.90;;;;;;4992551;28;20039;-80
2021/12/03 01:25:37;;;;;;;16.77;8.68;;;0.80;99.90;;;;;;4989287;28;20023;-80
2021/12/03 01:28:03;;;;;;;12.55;8.00;;;0.90;99.90;;;;;;4994634;28;20084;-80
2021/12/03 01:30:31;;;;;;;12.38;7.60;;;0.90;99.90;;;;;;5011945;28;20029;-79
2021/12/03 01:33:01;;;;;;;17.45;9.68;;;0.90;99.90;;;;;;5014724;28;20037;-80
2021/12/03 01:35:30;;;;;;;13.30;8.13;;;1.00;99.90;;;;;;5013034;28;20054;-80
2021/12/03 01:38:11;;;;;;;16.23;8.25;;;1.00;99.90;;;;;;5012627;28;20033;-80
2021/12/03 01:40:39;;;;;;;15.70;9.07;;;1.10;99.90;;;;;;5013054;28;20030;-80
2021/12/03 01:43:06;;;;;;;14.32;9.13;;;1.10;99.90;;;;;;5025192;28;20014;-80
2021/12/03 01:45:37;;;;;;;13.82;9.25;;;1.10;99.90;;;;;;5034822;28;20037;-81
2021/12/03 01:48:03;;;;;;;16.38;9.25;;;1.10;99.90;;;;;;5034812;28;20029;-79
2021/12/03 01:50:39;;;;;;;15.13;8.70;;;1.00;99.90;;;;;;4990691;28;20232;-79
2021/12/03 01:53:05;;;;;;;12.68;8.38;;;1.00;99.90;;;;;;4989345;28;20471;-79
2021/12/03 01:55:32;;;;;;;13.88;9.25;;;1.00;99.90;;;;;;4984454;28;20027;-80
2021/12/03 01:57:58;;;;;;;14.30;8.60;;;1.00;99.90;;;;;;4987448;28;20045;-79
2021/12/03 02:00:27;;;;;;;14.60;9.38;;;1.00;99.90;;;;;;5002168;28;20136;-80
2021/12/03 02:02:54;;;;;;;14.52;9.02;;;0.90;99.90;;;;;;5010013;28;20034;-81
2021/12/03 02:05:21;;;;;;;14.35;8.73;;;0.90;99.90;;;;;;5008942;28;20038;-80
2021/12/03 02:07:47;;;;;;;17.38;8.95;;;0.80;99.90;;;;;;5007948;28;20022;-81
2021/12/03 02:10:15;;;;;;;13.68;8.80;;;0.80;99.90;;;;;;5015183;28;20062;-80
2021/12/03 02:12:41;;;;;;;16.92;9.07;;;0.90;99.90;;;;;;5016827;28;20037;-80
2021/12/03 02:15:08;;;;;;;13.45;8.20;;;0.90;99.90;;;;;;5027459;28;20076;-80
2021/12/03 02:17:34;;;;;;;14.43;8.73;;;0.90;99.90;;;;;;5024547;28;20056;-80
2021/12/03 02:20:00;;;;;;;13.45;6.80;;;0.90;99.90;;;;;;5006352;28;20030;-80
2021/12/03 02:22:30;;;;;;;13.45;7.85;;;0.80;99.90;;;;;;5007637;28;20041;-81
2021/12/03 02:24:56;;;;;;;12.27;7.50;;;0.80;99.90;;;;;;5006730;28;20030;-79
2021/12/03 02:27:22;;;;;;;14.57;8.60;;;0.80;99.90;;;;;;5010143;28;20036;-80
2021/12/03 02:29:48;;;;;;;13.52;7.30;;;0.70;99.90;;;;;;5007215;28;20071;-80
2021/12/03 02:32:14;;;;;;;10.50;7.45;;;0.70;99.90;;;;;;5007838;28;20027;-79
2021/12/03 02:34:39;;;;;;;12.75;7.78;;;0.70;99.90;;;;;;5006929;28;20128;-80
2021/12/03 02:37:08;;;;;;;14.68;7.90;;;0.60;99.90;;;;;;5007348;28;20118;-79
2021/12/03 02:39:34;;;;;;;13.75;8.40;;;0.60;99.90;;;;;;5007806;28;20054;-78
2021/12/03 02:42:00;;;;;;;15.80;9.30;;;0.60;99.90;;;;;;5019071;28;20026;-79
2021/12/03 02:44:27;;;;;;;16.40;8.35;;;0.70;99.90;;;;;;5030219;28;20063;-79
2021/12/03 02:46:53;;;;;;;15.35;8.52;;;0.70;99.90;;;;;;5034339;28;20025;-81
2021/12/03 02:49:20;;;;;;;12.43;7.10;;;0.80;99.90;;;;;;5027438;28;20036;-81
2021/12/03 02:51:45;;;;;;;13.95;8.40;;;0.90;99.90;;;;;;5014355;28;20036;-82
2021/12/03 02:54:12;;;;;;;13.65;8.40;;;0.90;99.90;;;;;;5013825;28;20019;-80
2021/12/03 02:56:38;;;;;;;13.25;7.90;;;0.90;99.90;;;;;;5012758;28;20034;-81
2021/12/03 02:59:04;;;;;;;13.27;7.70;;;0.90;99.90;;;;;;5013266;28;20027;-81
2021/12/03 03:01:31;;;;;;;11.80;7.88;;;0.90;99.90;;;;;;5014047;28;20046;-81
2021/12/03 03:03:57;;;;;;;14.88;8.52;;;1.00;99.90;;;;;;5011361;28;20035;-81
2021/12/03 03:06:23;;;;;;;14.20;9.20;;;1.00;99.90;;;;;;5014787;28;20088;-81
2021/12/03 03:08:49;;;;;;;14.55;8.75;;;1.00;99.90;;;;;;5013779;28;20015;-78
2021/12/03 03:11:17;;;;;;;14.63;8.50;;;1.00;99.90;;;;;;5014222;28;20191;-81
2021/12/03 03:13:43;;;;;;;11.57;7.38;;;1.00;99.90;;;;;;5030642;28;20018;-79
2021/12/03 03:16:09;;;;;;;11.73;7.78;;;1.00;99.90;;;;;;5028254;28;20065;-78
2021/12/03 03:18:36;;;;;;;13.45;7.20;;;1.10;99.90;;;;;;5028096;28;20033;-80
2021/12/03 03:21:04;;;;;;;11.82;7.75;;;1.00;99.90;;;;;;5028146;28;20010;-79
2021/12/03 03:23:32;;;;;;;14.85;8.80;;;1.00;99.90;;;;;;5044524;28;20097;-80
2021/12/03 03:25:59;;;;;;;12.60;7.50;;;1.00;99.90;;;;;;5027801;28;20112;-80
2021/12/03 03:28:25;;;;;;;13.98;8.05;;;1.10;99.90;;;;;;5026705;28;20053;-80
2021/12/03 03:30:54;;;;;;;11.70;7.65;;;1.10;99.90;;;;;;5008319;28;20080;-79
2021/12/03 03:33:20;;;;;;;12.18;8.05;;;1.10;99.90;;;;;;4989547;28;20042;-79
2021/12/03 03:35:47;;;;;;;11.30;7.03;;;1.10;99.90;;;;;;4993774;28;20105;-80
2021/12/03 03:38:14;;;;;;;10.60;7.40;;;1.10;99.90;;;;;;4993214;28;20046;-79
2021/12/03 03:40:41;;;;;;;10.90;7.00;;;1.10;99.90;;;;;;5002594;28;20038;-80
2021/12/03 03:43:07;;;;;;;10.68;6.30;;;1.10;99.90;;;;;;5032755;28;20037;-79
2021/12/03 03:45:34;;;;;;;11.50;7.18;;;1.10;99.90;;;;;;5033913;28;20045;-80
2021/12/03 03:48:00;;;;;;;11.57;7.43;;;1.10;99.90;;;;;;5034436;28;20018;-80
2021/12/03 03:50:27;;;;;;;14.63;7.97;;;1.10;99.90;;;;;;5031688;28;20022;-79
2021/12/03 03:52:55;;;;;;;9.85;6.70;;;1.10;99.90;;;;;;5014077;28;20034;-80
2021/12/03 03:55:22;;;;;;;10.40;6.60;;;1.00;99.90;;;;;;5012827;28;20052;-80
2021/12/03 03:57:49;;;;;;;9.45;6.82;;;1.00;99.90;;;;;;5013256;28;20034;-79
2021/12/03 04:00:19;;;;;;;10.38;7.35;;;1.00;99.90;;;;;;5013126;28;20032;-80
2021/12/03 04:02:46;;;;;;;11.93;6.68;;;1.00;99.90;;;;;;5011446;28;20034;-80
2021/12/03 04:05:12;;;;;;;10.88;6.45;;;1.00;99.90;;;;;;5012826;28;20083;-79
2021/12/03 04:07:38;;;;;;;9.55;6.15;;;1.00;99.90;;;;;;5011608;28;20033;-80
2021/12/03 04:10:06;;;;;;;10.95;6.95;;;1.10;99.90;;;;;;5012363;28;20097;-79
2021/12/03 04:12:33;;;;;;;8.38;5.95;;;1.10;99.90;;;;;;5007288;28;20023;-79
2021/12/03 04:14:59;;;;;;;10.65;6.28;;;1.10;99.90;;;;;;5005224;28;20042;-77
2021/12/03 04:17:25;;;;;;;11.13;6.30;;;1.10;99.90;;;;;;5005316;28;20026;-79
2021/12/03 04:19:51;;;;;;;12.15;6.78;;;1.10;99.90;;;;;;5005103;28;20033;-78
2021/12/03 04:22:23;;;;;;;9.73;6.53;;;1.20;99.90;;;;;;5000349;28;20049;-78
2021/12/03 04:24:49;;;;;;;11.50;7.22;;;1.10;99.90;;;;;;4989847;28;20575;-79
2021/12/03 04:27:15;;;;;;;11.15;6.47;;;1.10;99.90;;;;;;4990439;28;20027;-79
2021/12/03 04:29:41;;;;;;;11.30;6.70;;;1.10;99.90;;;;;;4988463;28;20070;-78
2021/12/03 04:32:08;;;;;;;10.50;6.80;;;1.10;99.90;;;;;;4989772;28;20058;-78
2021/12/03 04:34:35;;;;;;;10.68;7.55;;;1.00;99.90;;;;;;5006310;28;20079;-79
2021/12/03 04:37:01;;;;;;;13.30;7.00;;;1.00;99.90;;;;;;5003825;28;20189;-80
2021/12/03 04:39:27;;;;;;;12.05;6.97;;;1.00;99.90;;;;;;5003131;28;20045;-79
2021/12/03 04:41:53;;;;;;;12.07;6.78;;;1.00;99.90;;;;;;5008122;28;20053;-79
2021/12/03 04:44:18;;;;;;;11.23;6.70;;;1.00;99.90;;;;;;5007801;28;20026;-78
2021/12/03 04:46:44;;;;;;;11.15;7.28;;;1.00;99.90;;;;;;5006932;28;20054;-79
2021/12/03 04:49:10;;;;;;;11.23;6.90;;;0.90;99.90;;;;;;5004739;28;20030;-79
2021/12/03 04:51:36;;;;;;;14.15;6.93;;;0.90;99.90;;;;;;4999282;28;20073;-79
2021/12/03 04:54:02;;;;;;;9.52;6.13;;;0.90;99.90;;;;;;4996797;28;20034;-80
2021/12/03 04:56:28;;;;;;;10.00;6.47;;;0.90;99.90;;;;;;5000573;28;20035;-80
2021/12/03 04:58:54;;;;;;;13.38;6.72;;;0.90;99.90;;;;;;4999479;28;20490;-79
2021/12/03 05:01:20;;;;;;;9.98;6.22;;;0.90;99.90;;;;;;4998237;28;20054;-80
2021/12/03 05:03:45;;;;;;;9.95;5.57;;;1.00;99.90;;;;;;4995954;28;20034;-78
2021/12/03 05:06:15;;;;;;;7.85;5.90;;;1.00;99.90;;;;;;5001268;28;20495;-79
2021/12/03 05:08:41;;;;;;;9.15;5.97;;;1.10;99.90;;;;;;4996064;28;20045;-77
2021/12/03 05:11:07;;;;;;;8.25;5.82;;;1.10;99.90;;;;;;5002510;28;20405;-76
2021/12/03 05:13:35;;;;;;;7.55;5.25;;;1.10;99.90;;;;;;5010678;28;20064;-77
2021/12/03 05:16:03;;;;;;;10.23;6.13;;;1.00;99.90;;;;;;5001270;28;20086;-76
2021/12/03 05:18:30;;;;;;;9.02;5.93;;;1.00;99.90;;;;;;5001396;28;20485;-76
2021/12/03 05:21:00;;;;;;;8.25;5.68;;;1.00;99.90;;;;;;4996975;28;20045;-77
2021/12/03 05:23:28;;;;;;;6.47;4.85;;;1.00;99.90;;;;;;5002463;28;20030;-75
2021/12/03 05:25:54;;;;;;;9.82;5.50;;;1.00;99.90;;;;;;4983520;28;20037;-77
2021/12/03 05:28:21;;;;;;;8.18;5.47;;;0.90;99.90;;;;;;4978654;28;20038;-77
2021/12/03 05:30:47;;;;;;;6.70;4.40;;;1.00;99.90;;;;;;4981791;28;20027;-75
2021/12/03 05:33:14;;;;;;;10.57;5.68;;;0.90;99.90;;;;;;4983747;28;20041;-76
2021/12/03 05:35:39;;;;;;;7.18;5.25;;;1.00;99.90;;;;;;4998172;28;20038;-75
2021/12/03 05:38:05;;;;;;;9.15;5.43;;;1.00;99.90;;;;;;4999877;28;20033;-75
2021/12/03 05:40:31;;;;;;;8.20;5.80;;;0.90;99.90;;;;;;4999523;28;20053;-77
2021/12/03 05:42:57;;;;;;;9.25;5.43;;;1.00;99.90;;;;;;5018351;28;20108;-77
2021/12/03 05:45:27;;;;;;;8.38;4.72;;;1.00;99.90;;;;;;5022040;28;20104;-75
2021/12/03 05:47:54;;;;;;;7.90;5.00;;;1.00;99.90;;;;;;5002038;28;20052;-76
2021/12/03 05:50:20;;;;;;;6.65;4.88;;;1.00;99.90;;;;;;4996220;28;20045;-76
2021/12/03 05:52:48;;;;;;;9.10;6.03;;;1.00;99.90;;;;;;5002435;28;20034;-75
2021/12/03 05:55:14;;;;;;;7.55;5.40;;;1.00;99.90;;;;;;4979721;28;20034;-77
2021/12/03 05:57:42;;;;;;;7.40;5.22;;;1.00;99.90;;;;;;4980755;28;20023;-76
2021/12/03 06:00:15;;;;;;;7.15;5.47;;;1.00;99.90;;;;;;4980412;28;20022;-75
2021/12/03 06:02:41;;;;;;;7.43;5.40;;;1.10;99.90;;;;;;4975007;28;20034;-77
2021/12/03 06:05:07;;;;;;;7.50;5.10;;;1.00;99.90;;;;;;4981156;28;20022;-79
2021/12/03 06:07:33;;;;;;;8.65;5.15;;;1.00;99.90;;;;;;4979808;28;20030;-76
2021/12/03 06:09:59;;;;;;;7.63;5.38;;;1.00;99.90;;;;;;4983488;28;20030;-76
2021/12/03 06:12:24;;;;;;;9.95;5.45;;;1.00;99.90;;;;;;5003341;28;20025;-76
2021/12/03 06:14:50;;;;;;;8.05;5.80;;;1.00;99.90;;;;;;5000839;28;20030;-76
2021/12/03 06:17:16;;;;;;;10.55;6.53;;;1.00;99.90;;;;;;5000911;28;20533;-76
2021/12/03 06:19:43;;;;;;;8.48;6.07;;;1.10;99.90;;;;;;5001450;28;20041;-76
2021/12/03 06:22:09;;;;;;;9.48;6.40;;;1.10;99.90;;;;;;4992150;28;20093;-76
2021/12/03 06:24:36;;;;;;;12.07;6.40;;;1.00;99.90;;;;;;4976792;28;20047;-77
2021/12/03 06:27:01;;;;;;;9.50;6.57;;;1.00;99.90;;;;;;4990307;28;20027;-77
2021/12/03 06:29:27;;;;;;;10.95;5.97;;;1.00;99.90;;;;;;4991874;28;20046;-76
2021/12/03 06:31:53;;;;;;;8.00;5.68;;;1.10;99.90;;;;;;4998876;28;20054;-77
2021/12/03 06:34:19;;;;;;;10.13;6.20;;;1.00;99.90;;;;;;4980948;28;20480;-76
2021/12/03 06:36:44;;;;;;;14.45;6.68;;;0.90;99.90;;;;;;4982956;28;20038;-76
2021/12/03 06:39:10;;;;;;;9.05;6.72;;;1.00;99.90;;;;;;4977173;28;20046;-77
2021/12/03 06:41:36;;;;;;;12.40;6.82;;;0.90;99.90;;;;;;5005330;28;20043;-78
2021/12/03 06:44:03;;;;;;;11.02;6.35;;;0.90;99.90;;;;;;5017594;28;20605;-77
2021/12/03 06:46:30;;;;;;;13.05;6.97;;;0.80;99.90;;;;;;5020380;28;20109;-77
2021/12/03 06:48:56;;;;;;;8.52;6.13;;;0.80;99.90;;;;;;4985152;28;20027;-78
2021/12/03 06:51:22;;;;;;;14.35;7.20;;;0.80;99.90;;;;;;4981699;28;20455;-78
2021/12/03 06:53:59;;;;;;;9.27;6.47;;;0.90;99.90;;;;;;4994935;28;20038;-78
2021/12/03 06:56:33;;;;;;;10.57;6.95;;;0.90;99.90;;;;;;5011398;28;20464;-79
2021/12/03 06:58:59;;;;;;;14.18;7.10;;;0.90;99.90;;;;;;4991590;28;20054;-79
2021/12/03 07:01:25;;;;;;;11.68;6.75;;;0.90;99.90;;;;;;5000919;28;20029;-79
2021/12/03 07:03:51;;;;;;;10.93;7.47;;;0.90;99.90;;;;;;5001459;28;20058;-76
2021/12/03 07:06:17;;;;;;;9.18;6.75;;;1.00;99.90;;;;;;4996725;28;20033;-78
2021/12/03 07:08:43;;;;;;;11.68;7.18;;;0.90;99.90;;;;;;5000386;28;20022;-77
2021/12/03 07:11:09;;;;;;;12.45;7.28;;;0.90;99.90;;;;;;5015486;28;20110;-78
2021/12/03 07:13:35;;;;;;;11.00;7.00;;;0.90;99.90;;;;;;5010841;28;20057;-77
2021/12/03 07:16:05;;;;;;;9.55;6.63;;;0.90;99.90;;;;;;5008588;28;20057;-78
2021/12/03 07:18:31;;;;;;;14.15;7.53;;;0.90;99.90;;;;;;5007458;28;20122;-78
2021/12/03 07:20:56;;;;;;;11.35;6.90;;;0.90;99.90;;;;;;5019063;28;20041;-77
2021/12/03 07:23:22;;;;;;;10.85;7.55;;;0.90;99.90;;;;;;5004719;28;20458;-78
2021/12/03 07:25:48;;;;;;;9.80;6.72;;;1.00;99.90;;;;;;5003248;28;20077;-78
2021/12/03 07:28:15;;;;;;;9.18;6.68;;;1.00;99.90;;;;;;5002320;28;20309;-77
2021/12/03 07:30:41;;;;;;;11.07;7.13;;;1.00;99.90;;;;;;5003576;28;20114;-77
2021/12/03 07:33:11;;;;;;;11.45;7.20;;;0.90;99.90;;;;;;5011783;28;20479;-78
2021/12/03 07:35:37;;;;;;;9.25;6.55;;;0.90;99.90;;;;;;5013930;28;20214;-79
2021/12/03 07:38:03;;;;;;;13.57;8.40;;;0.90;99.90;;;;;;5009754;28;20029;-77
2021/12/03 07:40:29;;;;;;;13.90;8.20;;;0.90;99.90;;;;;;5009314;28;20050;-77
2021/12/03 07:42:55;;;;;;;12.98;7.82;;;0.90;99.90;;;;;;5017913;28;20030;-77
2021/12/03 07:45:21;;;;;;;11.45;7.28;;;0.90;99.90;;;;;;5021412;28;20080;-75
2021/12/03 07:47:47;;;;;;;9.70;6.35;;;1.10;99.90;;;;;;5028963;28;20014;-77
2021/12/03 07:50:14;;;;;;;10.25;6.60;;;1.10;99.90;;;;;;5027186;28;20067;-77
2021/12/03 07:52:40;;;;;;;11.02;7.03;;;1.20;99.90;;;;;;5015045;28;20030;-76
2021/12/03 07:55:07;;;;;;;12.40;7.10;;;1.20;99.90;;;;;;5007001;28;20022;-75
2021/12/03 07:57:33;;;;;;;11.55;7.25;;;1.30;99.90;;;;;;5010012;28;20022;-77
2021/12/03 07:59:59;;;;;;;11.35;7.53;;;1.40;99.90;;;;;;5021186;28;20102;-79
2021/12/03 08:02:26;;;;;;;9.95;6.80;;;1.60;99.90;;;;;;5016447;28;20026;-80
2021/12/03 08:04:52;;;;;;;10.43;6.75;;;1.80;99.90;;;;;;5008719;28;20054;-79
2021/12/03 08:07:18;;;;;;;8.50;5.97;;;1.90;99.90;;;;;;5007580;28;20089;-78
2021/12/03 08:09:45;;;;;;;8.52;6.15;;;1.90;99.90;;;;;;5007429;28;20042;-76
2021/12/03 08:12:11;;;;;;;8.43;6.28;;;1.90;99.90;;;;;;5014714;28;20494;-77
2021/12/03 08:14:36;;;;;;;8.27;6.00;;;1.80;99.90;;;;;;5018995;28;20530;-78
2021/12/03 08:17:02;;;;;;;8.18;5.35;;;1.80;99.90;;;;;;5001337;28;20073;-78
2021/12/03 08:19:28;;;;;;;7.63;5.80;;;1.80;99.90;;;;;;5004323;28;20083;-77
2021/12/03 08:21:54;;;;;;;9.55;5.75;;;1.80;99.90;;;;;;4998817;28;20034;-77
2021/12/03 08:24:19;;;;;;;7.72;5.80;;;1.80;99.50;;;;;;5000869;28;20118;-76
2021/12/03 08:26:45;;;;;;;9.32;5.93;;;1.90;99.20;;;;;;4996991;28;20098;-76
2021/12/03 08:29:11;;;;;;;7.82;5.47;;;1.90;99.30;;;;;;4999220;28;20049;-77
2021/12/03 08:31:39;;;;;;;7.43;5.43;;;2.00;99.60;;;;;;5004408;28;20018;-77
2021/12/03 08:34:04;;;;;;;7.82;5.22;;;2.10;99.70;;;;;;5003476;28;20022;-81
2021/12/03 08:36:30;;;;;;;7.78;5.15;;;2.30;99.90;;;;;;5003195;28;20026;-78
2021/12/03 08:38:57;;;;;;;10.13;5.75;;;2.60;99.20;;;;;;5001648;28;20075;-78
2021/12/03 08:41:23;;;;;;;8.05;5.63;;;2.70;98.40;;;;;;5002072;28;20173;-78
2021/12/03 08:43:50;;;;;;;9.13;5.72;;;2.70;97.70;;;;;;5004459;28;20344;-79
2021/12/03 08:47:01;;;;;;;8.57;5.85;;;2.70;97.30;;;;;;5001570;28;20042;-77
2021/12/03 08:49:16;;;;;;;10.05;5.60;;;2.60;97.10;;;;;;5001629;28;20575;-77
2021/12/03 08:56:54;;;;;;;8.55;5.78;;;2.70;96.80;;;;;;5001963;28;20036;-79
2021/12/03 08:59:20;;;;;;;9.93;5.63;;;2.70;95.60;;;;;;4992140;28;20070;-79
2021/12/03 09:01:46;;;;;;;9.65;5.28;;;2.50;96.10;;;;;;4986303;28;20027;-78
2021/12/03 09:04:15;;;;;;;7.60;4.63;;;2.20;96.60;;;;;;4977231;28;20106;-78
2021/12/03 09:06:41;;;;;;;9.63;6.35;;;2.00;97.20;;;;;;4978419;28;20023;-78
2021/12/03 09:09:08;;;;;;;11.35;6.72;;;1.90;97.10;;;;;;4978033;28;20038;-77
2021/12/03 09:11:35;;;;;;;8.60;5.47;;;1.90;97.70;;;;;;4999847;28;20069;-79
2021/12/03 09:14:06;;;;;;;7.47;5.70;;;2.10;98.00;;;;;;5008078;28;20022;-77
2021/12/03 09:16:32;;;;;;;7.53;5.35;;;2.40;98.10;;;;;;4994681;28;20498;-78
2021/12/03 09:18:59;;;;;;;8.10;6.00;;;2.70;97.60;;;;;;5000266;28;20026;-79
2021/12/03 09:21:28;;;;;;;8.85;5.90;;;2.90;96.90;;;;;;4998244;28;20023;-78
2021/12/03 09:26:27;;;;;;;8.73;5.27;;;3.20;96.30;;;;;;5000996;28;20037;-77
2021/12/03 09:29:03;;;;;;;7.72;5.40;;;3.20;95.60;;;;;;4984599;28;20443;-78
2021/12/03 09:31:29;;;;;;;8.55;5.90;;;3.10;95.70;;;;;;4976896;28;20031;-79
2021/12/03 09:33:57;;;;;;;5.63;4.35;;;3.20;95.50;;;;;;4980045;28;20030;-79
2021/12/03 09:36:25;;;;;;;7.65;5.32;;;3.10;95.30;;;;;;4981089;28;20105;-77
2021/12/03 09:38:51;;;;;;;7.97;4.97;;;3.20;94.50;;;;;;5001881;28;20038;-81
2021/12/03 09:41:21;;;;;;;6.68;4.88;;;3.30;94.30;;;;;;4997281;28;20061;-77
2021/12/03 09:43:53;;;;;;;6.50;4.65;;;3.30;93.30;;;;;;5002804;28;20526;-80
2021/12/03 09:46:25;;;;;;;7.97;5.35;;;3.40;92.90;;;;;;4997620;28;20387;-78
2021/12/03 09:51:46;;;;;;;6.22;4.68;;;3.40;92.80;;;;;;5003785;28;20026;-78
2021/12/03 09:56:39;;;;;;;5.82;4.20;;;3.50;92.80;;;;;;5006738;28;20022;-78
2021/12/03 10:01:55;;;;;;;7.00;4.43;;;3.90;92.30;;;;;;4984203;28;20090;-78
2021/12/03 10:04:43;;;;;;;6.50;4.55;;;4.00;91.20;;;;;;4978442;28;20368;-79
2021/12/03 10:08:23;;;;;;;5.75;3.70;;;3.90;90.40;;;;;;4978212;28;20025;-80
2021/12/03 10:55:59;;;;;;;5.88;3.42;;;3.20;84.10;;;;;;5002882;28;20018;-77
2021/12/03 11:04:34;;;;;;;4.80;3.00;;;3.10;82.60;;;;;;5009761;28;20111;-79
2021/12/03 11:15:22;;;;;;;2.65;2.13;;;3.10;78.20;;;;;;5003519;28;20029;-81
2021/12/03 11:41:54;;;;;;;4.97;3.72;;;3.40;77.50;;;;;;5001493;28;20022;-78
2021/12/03 12:36:21;;;;;;;7.22;3.10;;;5.90;69.10;;;;;;5000056;28;20452;-78
2021/12/03 14:04:10;;;;;;;5.28;2.70;;;3.30;73.10;;;;;;5000788;28;20065;-79
2021/12/03 14:06:36;;;;;;;9.10;2.38;;;3.20;73.20;;;;;;5000592;28;20454;-79
2021/12/03 14:43:37;;;;;;;4.38;3.28;;;2.40;79.70;;;;;;4988312;28;20326;-78
2021/12/03 14:52:44;;;;;;;7.30;2.88;;;2.10;81.90;;;;;;4983421;28;20023;-82
2021/12/03 14:55:04;;;;;;;8.00;3.40;;;2.00;82.10;;;;;;4979558;28;20039;-77
2021/12/03 15:00:32;;;;;;;3.97;3.05;;;1.90;83.00;;;;;;4997770;28;20042;-78
2021/12/03 15:03:26;;;;;;;8.50;3.78;;;1.90;83.80;;;;;;5013467;28;20034;-78
2021/12/03 15:08:55;;;;;;;5.75;3.20;;;1.80;85.30;;;;;;4995647;28;20053;-78
2021/12/03 15:22:16;;;;;;;9.50;4.28;;;1.60;87.10;;;;;;5020415;28;20105;-81
2021/12/03 15:24:56;;;;;;;4.65;3.50;;;1.60;87.60;;;;;;5013537;28;20030;-81
2021/12/03 15:27:52;;;;;;;5.50;3.08;;;1.60;87.90;;;;;;5011323;28;20018;-80
2021/12/03 15:35:19;;;;;;;6.15;3.40;;;1.50;88.50;;;;;;5009733;28;20030;-80
2021/12/03 15:37:59;;;;;;;8.00;3.63;;;1.50;88.90;;;;;;5018007;28;20034;-79
2021/12/03 15:57:00;;;;;;;3.25;2.72;;;1.20;90.70;;;;;;5028575;28;20033;-80
2021/12/03 16:05:01;;;;;;;5.85;3.55;;;1.30;91.20;;;;;;5021275;28;20037;-78
2021/12/03 16:10:17;;;;;;;7.93;3.30;;;1.20;91.30;;;;;;5004053;28;20097;-77
2021/12/03 16:13:08;;;;;;;7.35;3.55;;;1.20;91.40;;;;;;5040500;23;20006;-81
2021/12/03 16:53:19;;;;;;;7.10;3.33;;;0.80;93.40;;;;;;5052041;28;20056;-82
2021/12/03 16:55:55;;;;;;;5.28;2.83;;;0.80;93.40;;;;;;5049306;28;20025;-82
2021/12/03 16:58:21;;;;;;;3.70;2.67;;;0.80;93.30;;;;;;5031660;28;20284;-81
2021/12/03 17:00:56;;;;;;;3.55;2.33;;;0.70;93.30;;;;;;5049781;28;20026;-80
2021/12/03 17:03:27;;;;;;;8.57;3.33;;;0.70;93.40;;;;;;5048646;28;20025;-82
2021/12/03 17:13:59;;;;;;;4.07;3.05;;;0.60;93.80;;;;;;5055346;28;20036;-83
2021/12/03 17:58:35;;;;;;;5.90;3.70;;;0.50;96.90;;;;;;5051739;28;20029;-83
2021/12/03 18:11:56;;;;;;;5.93;3.33;;;0.60;96.80;;;;;;5055786;28;20048;-81
2021/12/03 18:48:54;;;;;;;9.55;5.47;;;-0.10;99.20;;;;;;5043874;28;20018;-85
2021/12/03 18:56:33;;;;;;;10.40;6.60;;;-0.20;99.30;;;;;;5041722;28;20032;-83
2021/12/03 18:59:08;;;;;;;11.07;6.03;;;-0.20;99.50;;;;;;5039762;28;20036;-83
2021/12/03 19:01:35;;;;;;;11.68;6.40;;;-0.20;99.60;;;;;;5035274;28;20106;-82
2021/12/03 19:06:35;;;;;;;11.32;5.53;;;-0.30;99.70;;;;;;5053371;28;20109;-82
2021/12/03 19:09:12;;;;;;;9.88;5.25;;;-0.30;99.70;;;;;;5036000;28;20030;-83
2021/12/03 19:11:45;;;;;;;9.20;5.30;;;-0.30;99.90;;;;;;5053200;28;20020;-82
2021/12/03 19:14:11;;;;;;;6.35;4.00;;;-0.40;99.90;;;;;;5047318;28;20044;-82
2021/12/03 19:16:37;;;;;;;9.23;4.63;;;-0.40;99.90;;;;;;5044640;28;20478;-82
2021/12/03 19:19:04;;;;;;;8.60;4.78;;;-0.40;99.90;;;;;;5045767;28;20033;-82
2021/12/03 19:21:38;;;;;;;7.78;4.53;;;-0.50;99.90;;;;;;5045497;28;20029;-83
2021/12/03 19:24:05;;;;;;;5.68;3.95;;;-0.50;99.90;;;;;;5046085;28;20033;-84
2021/12/03 19:26:33;;;;;;;9.93;4.75;;;-0.50;99.90;;;;;;5043269;28;20025;-82
2021/12/03 19:29:00;;;;;;;6.65;4.53;;;-0.60;99.90;;;;;;5044189;28;20688;-84
2021/12/03 19:31:27;;;;;;;9.10;3.92;;;-0.60;99.90;;;;;;5044727;28;20433;-83
2021/12/03 19:33:53;;;;;;;5.97;4.07;;;-0.60;99.90;;;;;;5043305;28;20029;-83
2021/12/03 19:36:23;;;;;;;8.07;4.45;;;-0.60;99.90;;;;;;5026078;28;20037;-83
2021/12/03 19:38:50;;;;;;;7.35;4.57;;;-0.60;99.90;;;;;;5041675;28;20033;-82
2021/12/03 19:41:43;;;;;;;5.22;4.07;;;-0.60;99.90;;;;;;5042207;28;20037;-82
2021/12/03 19:44:08;;;;;;;9.48;3.63;;;-0.60;99.90;;;;;;5047150;28;20045;-82
2021/12/03 19:46:36;;;;;;;6.38;3.45;;;-0.60;99.90;;;;;;5038702;28;20028;-83
2021/12/03 19:51:31;;;;;;;7.10;4.20;;;-0.50;99.90;;;;;;5045564;28;20018;-82
2021/12/03 19:53:59;;;;;;;7.03;3.75;;;-0.50;99.90;;;;;;5027952;28;20032;-82
2021/12/03 19:56:29;;;;;;;5.68;3.30;;;-0.50;99.90;;;;;;5030886;28;20029;-83
2021/12/03 19:58:56;;;;;;;7.57;3.65;;;-0.50;99.90;;;;;;5027030;28;20025;-83
2021/12/03 20:01:22;;;;;;;7.70;3.28;;;-0.50;99.80;;;;;;5035355;28;20056;-83
2021/12/03 20:03:51;;;;;;;6.97;3.83;;;-0.50;99.70;;;;;;5024140;28;20040;-83
2021/12/03 20:06:18;;;;;;;7.32;3.83;;;-0.50;99.70;;;;;;5006493;28;20026;-84
2021/12/03 20:08:43;;;;;;;7.03;3.40;;;-0.50;99.70;;;;;;5022917;28;20370;-85
2021/12/03 20:11:10;;;;;;;8.27;3.58;;;-0.40;99.80;;;;;;5005053;28;20026;-83
2021/12/03 20:13:39;;;;;;;6.72;3.25;;;-0.40;99.80;;;;;;5031702;28;20037;-85
2021/12/03 20:18:46;;;;;;;5.07;2.97;;;-0.40;99.70;;;;;;5047002;28;20030;-84
2021/12/03 20:21:13;;;;;;;7.03;3.75;;;-0.50;99.90;;;;;;5046054;28;20032;-83
2021/12/03 20:31:27;;;;;;;5.50;3.40;;;-0.70;99.70;;;;;;5046588;28;20079;-84
2021/12/03 20:34:23;;;;;;;6.43;3.50;;;-0.70;99.70;;;;;;5028085;28;20029;-84
2021/12/03 20:36:51;;;;;;;7.10;3.58;;;-0.70;99.90;;;;;;5027666;28;20093;-82
2021/12/03 20:39:20;;;;;;;6.95;3.72;;;-0.80;99.90;;;;;;5046663;28;20097;-83
2021/12/03 20:41:53;;;;;;;5.78;3.20;;;-0.80;99.90;;;;;;5051125;28;20021;-84
2021/12/03 20:52:32;;;;;;;7.57;3.50;;;-1.00;99.90;;;;;;5021449;28;20038;-85
2021/12/03 21:08:56;;;;;;;5.93;3.00;;;-1.10;99.90;;;;;;4984917;28;20037;-84
2021/12/03 21:11:26;;;;;;;3.70;2.40;;;-1.10;99.90;;;;;;4985419;28;20086;-85
2021/12/03 21:13:57;;;;;;;9.82;2.80;;;-1.10;99.90;;;;;;5005405;28;20033;-85
2021/12/03 21:21:42;;;;;;;5.15;2.75;;;-1.10;99.90;;;;;;5065645;28;20032;-85